Bougainville Reef, Australia
Current Conditions -  °F | °C
As of 3:30 AM on Friday 24 Oct 2014 (Local Time) from YBCS Reporting Station
Broken Clouds Broken Clouds  
Wind Chill: 70°   Ceiling: 6000
Heat Index: 70°   Visibility: 6mi
Dew Point: 66°   Wind: 7mph
Humidity: 88%   Direction: 160°SSE
Pressure: 30"   Gusts: NA
Location:  15.5°S, 147.12°E
Report Text: YBCS 231730Z 16006KT 9999 FEW025 SCT030 BKN060 21/19 Q1016
Loading
Personal Weather Stations






























Interactive Weather Map
Tropical Storm Tracking
New forecast layout! Learn more

10-Day Weather Forecast

Advertisements
Track Severe Weather on mobile